PWSweather.com
Personal Weather Stations
Station Observations
KKYBOWLI8
South Glen Gables Rich Pond, Bowling Green, KY 42101

South Glen Gables Rich PondBowling Green, KY 42101

Lat: 36.89362, Lon: -86.5232

Elevation: 577

Station Type: Davis Vantage Vue

Latest ConditionsUpdated 11:20:00 PM CST Sunday, Jan 19, 2020
Currently Today's Max Today's Min Today's Average
Temperature 19.5°F-6.9°C 33.5°F0.8°C 19.5°F-6.9°C 27.3°F-2.6°C
Dew Point 17.0°F-8.3°C 27.7°F-2.4°C 16.9°F-8.4°C 20.9°F-6.2°C
Winds 5.2 mph NE8.4 kmh NE 5.2 mph -8.4 kmh - - 2.8 mph 4.5 kmh
Wind Gusts 12.0 mph19.3 kmh 13.0 mph20.9 kmh - -
Humidity 90% 90% 65% 77%
Pressure 30.55 in1034.5 mb 30.55 in1034.5 mb 30.23 in1023.7 mb -
Hour Temp Dew Point Humidity Winds Wind Gusts Pressure Precip Precip Rate Daily Precip Total
11:20 PM 19.5°F-6.9°C 17.0°F-8.3°C 90% 5.2 mph NE8.4 kmh NE 12.0 mph19.3 kmh 30.55 in1034.5 mb 0.00 in0.0 mm 0.00 in0.0 mm 0.00 in0.0 mm
11:10 PM 19.6°F-6.9°C 16.9°F-8.4°C 89% 3.3 mph NNE5.3 kmh NNE 10.0 mph16.1 kmh 30.54 in1034.2 mb 0.00 in0.0 mm 0.00 in0.0 mm 0.00 in0.0 mm
11:00 PM 19.9°F-6.7°C 17.4°F-8.1°C 90% 2.4 mph NNE3.9 kmh NNE 8.0 mph12.9 kmh 30.54 in1034.2 mb 0.00 in0.0 mm 0.00 in0.0 mm 0.00 in0.0 mm
10:50 PM 20.0°F-6.7°C 17.3°F-8.2°C 89% 2.7 mph NE4.3 kmh NE 7.0 mph11.3 kmh 30.54 in1034.2 mb 0.00 in0.0 mm 0.00 in0.0 mm 0.00 in0.0 mm
10:40 PM 20.0°F-6.7°C 17.5°F-8.1°C 90% 2.5 mph NNE4.0 kmh NNE 7.0 mph11.3 kmh 30.54 in1034.2 mb 0.00 in0.0 mm 0.00 in0.0 mm 0.00 in0.0 mm
10:30 PM 20.0°F-6.7°C 17.3°F-8.2°C 89% 4.2 mph NNE6.8 kmh NNE 10.0 mph16.1 kmh 30.54 in1034.2 mb 0.00 in0.0 mm 0.00 in0.0 mm 0.00 in0.0 mm
10:20 PM 20.2°F-6.6°C 17.5°F-8.1°C 89% 4.0 mph NNE6.4 kmh NNE 10.0 mph16.1 kmh 30.54 in1034.2 mb 0.00 in0.0 mm 0.00 in0.0 mm 0.00 in0.0 mm
10:10 PM 20.5°F-6.4°C 17.5°F-8.1°C 88% 2.3 mph NNE3.7 kmh NNE 8.0 mph12.9 kmh 30.54 in1034.2 mb 0.00 in0.0 mm 0.00 in0.0 mm 0.00 in0.0 mm
10:00 PM 20.7°F-6.3°C 17.7°F-7.9°C 88% 2.8 mph NNW4.5 kmh NNW 9.0 mph14.5 kmh 30.54 in1034.2 mb 0.00 in0.0 mm 0.00 in0.0 mm 0.00 in0.0 mm
09:50 PM 20.9°F-6.2°C 17.9°F-7.8°C 88% 3.1 mph N5.0 kmh N 7.0 mph11.3 kmh 30.53 in1033.9 mb 0.00 in0.0 mm 0.00 in0.0 mm 0.00 in0.0 mm
09:40 PM 21.0°F-6.1°C 18.0°F-7.8°C 88% 3.3 mph NE5.3 kmh NE 10.0 mph16.1 kmh 30.53 in1033.9 mb 0.00 in0.0 mm 0.00 in0.0 mm 0.00 in0.0 mm
09:30 PM 21.1°F-6.1°C 18.1°F-7.7°C 88% 3.7 mph NNE6.0 kmh NNE 9.0 mph14.5 kmh 30.53 in1033.9 mb 0.00 in0.0 mm 0.00 in0.0 mm 0.00 in0.0 mm
09:20 PM 21.3°F-5.9°C 18.0°F-7.8°C 87% 3.5 mph NNE5.6 kmh NNE 10.0 mph16.1 kmh 30.52 in1033.5 mb 0.00 in0.0 mm 0.00 in0.0 mm 0.00 in0.0 mm
09:10 PM 21.5°F-5.8°C 18.2°F-7.7°C 87% 3.1 mph NE5.0 kmh NE 9.0 mph14.5 kmh 30.52 in1033.5 mb 0.00 in0.0 mm 0.00 in0.0 mm 0.00 in0.0 mm
09:00 PM 21.6°F-5.8°C 18.3°F-7.6°C 87% 3.6 mph N5.8 kmh N 10.0 mph16.1 kmh 30.52 in1033.5 mb 0.00 in0.0 mm 0.00 in0.0 mm 0.00 in0.0 mm
08:50 PM 21.8°F-5.7°C 18.3°F-7.6°C 86% 2.8 mph NNE4.5 kmh NNE 11.0 mph17.7 kmh 30.52 in1033.5 mb 0.00 in0.0 mm 0.00 in0.0 mm 0.00 in0.0 mm
08:40 PM 22.1°F-5.5°C 18.6°F-7.4°C 86% 2.5 mph NW4.0 kmh NW 7.0 mph11.3 kmh 30.52 in1033.5 mb 0.00 in0.0 mm 0.00 in0.0 mm 0.00 in0.0 mm
08:30 PM 22.2°F-5.4°C 18.7°F-7.4°C 86% 4.2 mph NNW6.8 kmh NNW 11.0 mph17.7 kmh 30.51 in1033.2 mb 0.00 in0.0 mm 0.00 in0.0 mm 0.00 in0.0 mm
08:20 PM 22.6°F-5.2°C 18.8°F-7.3°C 85% 4.4 mph NNE7.1 kmh NNE 10.0 mph16.1 kmh 30.51 in1033.2 mb 0.00 in0.0 mm 0.00 in0.0 mm 0.00 in0.0 mm
08:10 PM 22.8°F-5.1°C 19.0°F-7.2°C 85% 4.0 mph NE6.4 kmh NE 12.0 mph19.3 kmh 30.51 in1033.2 mb 0.00 in0.0 mm 0.00 in0.0 mm 0.00 in0.0 mm
08:00 PM 22.9°F-5.1°C 19.1°F-7.2°C 85% 3.0 mph NNE4.8 kmh NNE 9.0 mph14.5 kmh 30.51 in1033.2 mb 0.00 in0.0 mm 0.00 in0.0 mm 0.00 in0.0 mm
07:50 PM 23.0°F-5.0°C 19.2°F-7.1°C 85% 2.0 mph N3.2 kmh N 9.0 mph14.5 kmh 30.51 in1033.2 mb 0.00 in0.0 mm 0.00 in0.0 mm 0.00 in0.0 mm
07:40 PM 22.9°F-5.1°C 19.1°F-7.2°C 85% 1.3 mph W2.1 kmh W 5.0 mph8.0 kmh 30.51 in1033.2 mb 0.00 in0.0 mm 0.00 in0.0 mm 0.00 in0.0 mm
07:30 PM 22.9°F-5.1°C 18.8°F-7.3°C 84% 1.7 mph W2.7 kmh W 4.0 mph6.4 kmh 30.51 in1033.2 mb 0.00 in0.0 mm 0.00 in0.0 mm 0.00 in0.0 mm
07:20 PM 22.9°F-5.1°C 18.5°F-7.5°C 83% 2.1 mph W3.4 kmh W 6.0 mph9.7 kmh 30.51 in1033.2 mb 0.00 in0.0 mm 0.00 in0.0 mm 0.00 in0.0 mm
07:10 PM 23.0°F-5.0°C 18.6°F-7.4°C 83% 1.6 mph N2.6 kmh N 7.0 mph11.3 kmh 30.51 in1033.2 mb 0.00 in0.0 mm 0.00 in0.0 mm 0.00 in0.0 mm
07:00 PM 22.9°F-5.1°C 18.5°F-7.5°C 83% 1.1 mph W1.8 kmh W 5.0 mph8.0 kmh 30.51 in1033.2 mb 0.00 in0.0 mm 0.00 in0.0 mm 0.00 in0.0 mm
06:50 PM 23.0°F-5.0°C 18.6°F-7.4°C 83% 2.6 mph W4.2 kmh W 4.0 mph6.4 kmh 30.51 in1033.2 mb 0.00 in0.0 mm 0.00 in0.0 mm 0.00 in0.0 mm
06:40 PM 23.0°F-5.0°C 18.3°F-7.6°C 82% 3.0 mph W4.8 kmh W 8.0 mph12.9 kmh 30.50 in1032.8 mb 0.00 in0.0 mm 0.00 in0.0 mm 0.00 in0.0 mm
06:30 PM 23.0°F-5.0°C 18.3°F-7.6°C 82% 3.0 mph WNW4.8 kmh WNW 9.0 mph14.5 kmh 30.50 in1032.8 mb 0.00 in0.0 mm 0.00 in0.0 mm 0.00 in0.0 mm
06:20 PM 23.0°F-5.0°C 18.3°F-7.6°C 82% 2.2 mph WNW3.5 kmh WNW 10.0 mph16.1 kmh 30.49 in1032.5 mb 0.00 in0.0 mm 0.00 in0.0 mm 0.00 in0.0 mm
06:10 PM 23.1°F-4.9°C 18.4°F-7.6°C 82% 1.2 mph WNW1.9 kmh WNW 7.0 mph11.3 kmh 30.49 in1032.5 mb 0.00 in0.0 mm 0.00 in0.0 mm 0.00 in0.0 mm
06:00 PM 23.4°F-4.8°C 18.4°F-7.6°C 81% 1.9 mph W3.1 kmh W 6.0 mph9.7 kmh 30.49 in1032.5 mb 0.00 in0.0 mm 0.00 in0.0 mm 0.00 in0.0 mm
05:50 PM 23.7°F-4.6°C 18.4°F-7.6°C 80% 3.8 mph N6.1 kmh N 9.0 mph14.5 kmh 30.49 in1032.5 mb 0.00 in0.0 mm 0.00 in0.0 mm 0.00 in0.0 mm
05:40 PM 24.0°F-4.4°C 18.7°F-7.4°C 80% 2.6 mph N4.2 kmh N 10.0 mph16.1 kmh 30.48 in1032.2 mb 0.00 in0.0 mm 0.00 in0.0 mm 0.00 in0.0 mm
05:30 PM 24.4°F-4.2°C 18.8°F-7.3°C 79% 2.2 mph WNW3.5 kmh WNW 7.0 mph11.3 kmh 30.48 in1032.2 mb 0.00 in0.0 mm 0.00 in0.0 mm 0.00 in0.0 mm
05:20 PM 24.8°F-4.0°C 18.9°F-7.3°C 78% 3.0 mph W4.8 kmh W 7.0 mph11.3 kmh 30.47 in1031.8 mb 0.00 in0.0 mm 0.00 in0.0 mm 0.00 in0.0 mm
05:10 PM 25.1°F-3.8°C 18.9°F-7.3°C 77% 3.1 mph W5.0 kmh W 7.0 mph11.3 kmh 30.46 in1031.5 mb 0.00 in0.0 mm 0.00 in0.0 mm 0.00 in0.0 mm
05:00 PM 25.4°F-3.7°C 18.9°F-7.3°C 76% 3.7 mph W6.0 kmh W 11.0 mph17.7 kmh 30.46 in1031.5 mb 0.00 in0.0 mm 0.00 in0.0 mm 0.00 in0.0 mm
04:50 PM 25.8°F-3.4°C 19.0°F-7.2°C 75% 3.0 mph WNW4.8 kmh WNW 8.0 mph12.9 kmh 30.46 in1031.5 mb 0.00 in0.0 mm 0.00 in0.0 mm 0.00 in0.0 mm
04:40 PM 26.4°F-3.1°C 19.5°F-6.9°C 75% 3.5 mph W5.6 kmh W 9.0 mph14.5 kmh 30.45 in1031.2 mb 0.00 in0.0 mm 0.00 in0.0 mm 0.00 in0.0 mm
04:30 PM 26.9°F-2.8°C 19.4°F-7.0°C 73% 3.0 mph W4.8 kmh W 9.0 mph14.5 kmh 30.45 in1031.2 mb 0.00 in0.0 mm 0.00 in0.0 mm 0.00 in0.0 mm
04:20 PM 27.4°F-2.6°C 19.6°F-6.9°C 72% 3.6 mph W5.8 kmh W 8.0 mph12.9 kmh 30.44 in1030.8 mb 0.00 in0.0 mm 0.00 in0.0 mm 0.00 in0.0 mm
04:10 PM 28.1°F-2.2°C 19.6°F-6.9°C 70% 3.0 mph W4.8 kmh W 11.0 mph17.7 kmh 30.43 in1030.5 mb 0.00 in0.0 mm 0.00 in0.0 mm 0.00 in0.0 mm
04:00 PM 28.7°F-1.8°C 20.5°F-6.4°C 71% 3.1 mph W5.0 kmh W 7.0 mph11.3 kmh 30.43 in1030.5 mb 0.00 in0.0 mm 0.00 in0.0 mm 0.00 in0.0 mm
03:50 PM 28.6°F-1.9°C 20.1°F-6.6°C 70% 3.2 mph WNW5.1 kmh WNW 9.0 mph14.5 kmh 30.43 in1030.5 mb 0.00 in0.0 mm 0.00 in0.0 mm 0.00 in0.0 mm
03:40 PM 29.0°F-1.7°C 20.4°F-6.4°C 70% 3.1 mph W5.0 kmh W 6.0 mph9.7 kmh 30.42 in1030.1 mb 0.00 in0.0 mm 0.00 in0.0 mm 0.00 in0.0 mm
03:30 PM 29.1°F-1.6°C 20.5°F-6.4°C 70% 3.0 mph NW4.8 kmh NW 10.0 mph16.1 kmh 30.42 in1030.1 mb 0.00 in0.0 mm 0.00 in0.0 mm 0.00 in0.0 mm
03:20 PM 29.2°F-1.6°C 20.6°F-6.3°C 70% 3.8 mph W6.1 kmh W 7.0 mph11.3 kmh 30.42 in1030.1 mb 0.00 in0.0 mm 0.00 in0.0 mm 0.00 in0.0 mm
03:10 PM 29.4°F-1.4°C 20.8°F-6.2°C 70% 3.1 mph W5.0 kmh W 9.0 mph14.5 kmh 30.42 in1030.1 mb 0.00 in0.0 mm 0.00 in0.0 mm 0.00 in0.0 mm
03:00 PM 29.8°F-1.2°C 20.9°F-6.2°C 69% 3.0 mph W4.8 kmh W 8.0 mph12.9 kmh 30.41 in1029.8 mb 0.00 in0.0 mm 0.00 in0.0 mm 0.00 in0.0 mm
02:50 PM 29.9°F-1.2°C 21.3°F-5.9°C 70% 3.5 mph W5.6 kmh W 7.0 mph11.3 kmh 30.40 in1029.5 mb 0.00 in0.0 mm 0.00 in0.0 mm 0.00 in0.0 mm
02:40 PM 29.7°F-1.3°C 20.8°F-6.2°C 69% 4.0 mph WNW6.4 kmh WNW 13.0 mph20.9 kmh 30.40 in1029.5 mb 0.00 in0.0 mm 0.00 in0.0 mm 0.00 in0.0 mm
02:30 PM 29.9°F-1.2°C 20.3°F-6.5°C 67% 4.0 mph W6.4 kmh W 9.0 mph14.5 kmh 30.40 in1029.5 mb 0.00 in0.0 mm 0.00 in0.0 mm 0.00 in0.0 mm
02:20 PM 30.1°F-1.1°C 20.5°F-6.4°C 67% 3.8 mph W6.1 kmh W 12.0 mph19.3 kmh 30.40 in1029.5 mb 0.00 in0.0 mm 0.00 in0.0 mm 0.00 in0.0 mm
02:10 PM 30.4°F-0.9°C 20.7°F-6.3°C 67% 3.8 mph W6.1 kmh W 11.0 mph17.7 kmh 30.39 in1029.1 mb 0.00 in0.0 mm 0.00 in0.0 mm 0.00 in0.0 mm
02:00 PM 30.5°F-0.8°C 20.5°F-6.4°C 66% 3.2 mph W5.1 kmh W 10.0 mph16.1 kmh 30.39 in1029.1 mb 0.00 in0.0 mm 0.00 in0.0 mm 0.00 in0.0 mm
01:50 PM 30.6°F-0.8°C 20.9°F-6.2°C 67% 3.2 mph W5.1 kmh W 9.0 mph14.5 kmh 30.39 in1029.1 mb 0.00 in0.0 mm 0.00 in0.0 mm 0.00 in0.0 mm
01:40 PM 30.2°F-1.0°C 20.2°F-6.6°C 66% 3.0 mph W4.8 kmh W 8.0 mph12.9 kmh 30.39 in1029.1 mb 0.00 in0.0 mm 0.00 in0.0 mm 0.00 in0.0 mm
01:30 PM 30.1°F-1.1°C 19.7°F-6.8°C 65% 3.7 mph W6.0 kmh W 8.0 mph12.9 kmh 30.39 in1029.1 mb 0.00 in0.0 mm 0.00 in0.0 mm 0.00 in0.0 mm
01:20 PM 30.0°F-1.1°C 20.4°F-6.4°C 67% 4.0 mph W6.4 kmh W 9.0 mph14.5 kmh 30.39 in1029.1 mb 0.00 in0.0 mm 0.00 in0.0 mm 0.00 in0.0 mm
01:10 PM 29.9°F-1.2°C 19.9°F-6.7°C 66% 3.2 mph W5.1 kmh W 9.0 mph14.5 kmh 30.39 in1029.1 mb 0.00 in0.0 mm 0.00 in0.0 mm 0.00 in0.0 mm
01:00 PM 30.1°F-1.1°C 20.1°F-6.6°C 66% 3.0 mph W4.8 kmh W 9.0 mph14.5 kmh 30.39 in1029.1 mb 0.00 in0.0 mm 0.00 in0.0 mm 0.00 in0.0 mm
12:50 PM 30.2°F-1.0°C 21.2°F-6.0°C 69% 3.1 mph W5.0 kmh W 7.0 mph11.3 kmh 30.39 in1029.1 mb 0.00 in0.0 mm 0.00 in0.0 mm 0.00 in0.0 mm
12:40 PM 29.6°F-1.3°C 20.3°F-6.5°C 68% 3.5 mph W5.6 kmh W 8.0 mph12.9 kmh 30.39 in1029.1 mb 0.00 in0.0 mm 0.00 in0.0 mm 0.00 in0.0 mm
12:30 PM 29.7°F-1.3°C 20.1°F-6.6°C 67% 3.2 mph W5.1 kmh W 8.0 mph12.9 kmh 30.39 in1029.1 mb 0.00 in0.0 mm 0.00 in0.0 mm 0.00 in0.0 mm
12:20 PM 29.4°F-1.4°C 20.5°F-6.4°C 69% 3.0 mph WSW4.8 kmh WSW 9.0 mph14.5 kmh 30.39 in1029.1 mb 0.00 in0.0 mm 0.00 in0.0 mm 0.00 in0.0 mm
12:10 PM 29.2°F-1.6°C 19.9°F-6.7°C 68% 3.9 mph W6.3 kmh W 7.0 mph11.3 kmh 30.39 in1029.1 mb 0.00 in0.0 mm 0.00 in0.0 mm 0.00 in0.0 mm
12:00 PM 28.6°F-1.9°C 19.4°F-7.0°C 68% 4.2 mph W6.8 kmh W 11.0 mph17.7 kmh 30.39 in1029.1 mb 0.00 in0.0 mm 0.00 in0.0 mm 0.00 in0.0 mm
11:50 AM 29.1°F-1.6°C 19.8°F-6.8°C 68% 3.0 mph W4.8 kmh W 9.0 mph14.5 kmh 30.39 in1029.1 mb 0.00 in0.0 mm 0.00 in0.0 mm 0.00 in0.0 mm
11:40 AM 28.9°F-1.7°C 19.7°F-6.8°C 68% 3.9 mph W6.3 kmh W 9.0 mph14.5 kmh 30.39 in1029.1 mb 0.00 in0.0 mm 0.00 in0.0 mm 0.00 in0.0 mm
11:30 AM 28.6°F-1.9°C 19.7°F-6.8°C 69% 4.0 mph W6.4 kmh W 11.0 mph17.7 kmh 30.39 in1029.1 mb 0.00 in0.0 mm 0.00 in0.0 mm 0.00 in0.0 mm
11:20 AM 28.7°F-1.8°C 19.1°F-7.2°C 67% 3.8 mph WSW6.1 kmh WSW 9.0 mph14.5 kmh 30.39 in1029.1 mb 0.00 in0.0 mm 0.00 in0.0 mm 0.00 in0.0 mm
11:10 AM 28.5°F-1.9°C 20.6°F-6.3°C 72% 4.0 mph W6.4 kmh W 10.0 mph16.1 kmh 30.40 in1029.5 mb 0.00 in0.0 mm 0.00 in0.0 mm 0.00 in0.0 mm
11:00 AM 28.1°F-2.2°C 19.2°F-7.1°C 69% 3.8 mph W6.1 kmh W 8.0 mph12.9 kmh 30.40 in1029.5 mb 0.00 in0.0 mm 0.00 in0.0 mm 0.00 in0.0 mm
10:50 AM 28.0°F-2.2°C 20.8°F-6.2°C 74% 4.2 mph W6.8 kmh W 8.0 mph12.9 kmh 30.40 in1029.5 mb 0.00 in0.0 mm 0.00 in0.0 mm 0.00 in0.0 mm
10:40 AM 27.7°F-2.4°C 20.2°F-6.6°C 73% 3.7 mph W6.0 kmh W 9.0 mph14.5 kmh 30.40 in1029.5 mb 0.00 in0.0 mm 0.00 in0.0 mm 0.00 in0.0 mm
10:30 AM 28.6°F-1.9°C 21.4°F-5.9°C 74% 3.4 mph W5.5 kmh W 9.0 mph14.5 kmh 30.40 in1029.5 mb 0.00 in0.0 mm 0.00 in0.0 mm 0.00 in0.0 mm
10:20 AM 27.4°F-2.6°C 19.9°F-6.7°C 73% 4.8 mph W7.7 kmh W 9.0 mph14.5 kmh 30.40 in1029.5 mb 0.00 in0.0 mm 0.00 in0.0 mm 0.00 in0.0 mm
10:10 AM 27.7°F-2.4°C 20.5°F-6.4°C 74% 4.2 mph W6.8 kmh W 11.0 mph17.7 kmh 30.39 in1029.1 mb 0.00 in0.0 mm 0.00 in0.0 mm 0.00 in0.0 mm
10:00 AM 27.3°F-2.6°C 20.4°F-6.4°C 75% 4.0 mph W6.4 kmh W 10.0 mph16.1 kmh 30.39 in1029.1 mb 0.00 in0.0 mm 0.00 in0.0 mm 0.00 in0.0 mm
09:50 AM 27.2°F-2.7°C 20.6°F-6.3°C 76% 4.0 mph W6.4 kmh W 8.0 mph12.9 kmh 30.39 in1029.1 mb 0.00 in0.0 mm 0.00 in0.0 mm 0.00 in0.0 mm
09:40 AM 28.0°F-2.2°C 20.8°F-6.2°C 74% 4.0 mph W6.4 kmh W 8.0 mph12.9 kmh 30.39 in1029.1 mb 0.00 in0.0 mm 0.00 in0.0 mm 0.00 in0.0 mm
09:30 AM 27.7°F-2.4°C 20.8°F-6.2°C 75% 4.0 mph W6.4 kmh W 9.0 mph14.5 kmh 30.38 in1028.8 mb 0.00 in0.0 mm 0.00 in0.0 mm 0.00 in0.0 mm
09:20 AM 27.6°F-2.4°C 21.3°F-5.9°C 77% 4.0 mph W6.4 kmh W 8.0 mph12.9 kmh 30.38 in1028.8 mb 0.00 in0.0 mm 0.00 in0.0 mm 0.00 in0.0 mm
09:10 AM 28.2°F-2.1°C 21.6°F-5.8°C 76% 4.0 mph W6.4 kmh W 10.0 mph16.1 kmh 30.37 in1028.4 mb 0.00 in0.0 mm 0.00 in0.0 mm 0.00 in0.0 mm
09:00 AM 28.1°F-2.2°C 21.5°F-5.8°C 76% 3.5 mph W5.6 kmh W 10.0 mph16.1 kmh 30.36 in1028.1 mb 0.00 in0.0 mm 0.00 in0.0 mm 0.00 in0.0 mm
08:50 AM 28.1°F-2.2°C 21.5°F-5.8°C 76% 3.0 mph WSW4.8 kmh WSW 9.0 mph14.5 kmh 30.36 in1028.1 mb 0.00 in0.0 mm 0.00 in0.0 mm 0.00 in0.0 mm
08:40 AM 27.9°F-2.3°C 21.3°F-5.9°C 76% 3.5 mph W5.6 kmh W 7.0 mph11.3 kmh 30.36 in1028.1 mb 0.00 in0.0 mm 0.00 in0.0 mm 0.00 in0.0 mm
08:30 AM 27.7°F-2.4°C 21.4°F-5.9°C 77% 3.2 mph W5.1 kmh W 8.0 mph12.9 kmh 30.35 in1027.8 mb 0.00 in0.0 mm 0.00 in0.0 mm 0.00 in0.0 mm
08:20 AM 27.8°F-2.3°C 21.5°F-5.8°C 77% 3.0 mph W4.8 kmh W 8.0 mph12.9 kmh 30.35 in1027.8 mb 0.00 in0.0 mm 0.00 in0.0 mm 0.00 in0.0 mm
08:10 AM 27.6°F-2.4°C 21.6°F-5.8°C 78% 2.5 mph WNW4.0 kmh WNW 9.0 mph14.5 kmh 30.35 in1027.8 mb 0.00 in0.0 mm 0.00 in0.0 mm 0.00 in0.0 mm
08:00 AM 27.7°F-2.4°C 22.0°F-5.6°C 79% 2.0 mph W3.2 kmh W 5.0 mph8.0 kmh 30.34 in1027.4 mb 0.00 in0.0 mm 0.00 in0.0 mm 0.00 in0.0 mm
07:50 AM 27.4°F-2.6°C 21.4°F-5.9°C 78% 2.7 mph W4.3 kmh W 7.0 mph11.3 kmh 30.33 in1027.1 mb 0.00 in0.0 mm 0.00 in0.0 mm 0.00 in0.0 mm
07:40 AM 27.2°F-2.7°C 21.2°F-6.0°C 78% 3.0 mph W4.8 kmh W 7.0 mph11.3 kmh 30.32 in1026.8 mb 0.00 in0.0 mm 0.00 in0.0 mm 0.00 in0.0 mm
07:30 AM 27.2°F-2.7°C 21.2°F-6.0°C 78% 2.1 mph W3.4 kmh W 8.0 mph12.9 kmh 30.32 in1026.8 mb 0.00 in0.0 mm 0.00 in0.0 mm 0.00 in0.0 mm
07:20 AM 27.1°F-2.7°C 21.5°F-5.8°C 79% 2.0 mph W3.2 kmh W 6.0 mph9.7 kmh 30.32 in1026.8 mb 0.00 in0.0 mm 0.00 in0.0 mm 0.00 in0.0 mm
07:10 AM 27.0°F-2.8°C 21.4°F-5.9°C 79% 2.0 mph W3.2 kmh W 6.0 mph9.7 kmh 30.31 in1026.4 mb 0.00 in0.0 mm 0.00 in0.0 mm 0.00 in0.0 mm
07:00 AM 27.0°F-2.8°C 21.1°F-6.1°C 78% 2.0 mph W3.2 kmh W 4.0 mph6.4 kmh 30.31 in1026.4 mb 0.00 in0.0 mm 0.00 in0.0 mm 0.00 in0.0 mm
06:50 AM 27.2°F-2.7°C 21.2°F-6.0°C 78% 1.8 mph W2.9 kmh W 5.0 mph8.0 kmh 30.30 in1026.1 mb 0.00 in0.0 mm 0.00 in0.0 mm 0.00 in0.0 mm
06:40 AM 27.2°F-2.7°C 21.2°F-6.0°C 78% 1.0 mph W1.6 kmh W 5.0 mph8.0 kmh 30.30 in1026.1 mb 0.00 in0.0 mm 0.00 in0.0 mm 0.00 in0.0 mm
06:30 AM 27.4°F-2.6°C 21.4°F-5.9°C 78% 1.0 mph W1.6 kmh W 3.0 mph4.8 kmh 30.30 in1026.1 mb 0.00 in0.0 mm 0.00 in0.0 mm 0.00 in0.0 mm
06:20 AM 27.8°F-2.3°C 21.5°F-5.8°C 77% 1.8 mph W2.9 kmh W 5.0 mph8.0 kmh 30.30 in1026.1 mb 0.00 in0.0 mm 0.00 in0.0 mm 0.00 in0.0 mm
06:10 AM 28.1°F-2.2°C 21.2°F-6.0°C 75% 2.0 mph W3.2 kmh W 6.0 mph9.7 kmh 30.30 in1026.1 mb 0.00 in0.0 mm 0.00 in0.0 mm 0.00 in0.0 mm
06:00 AM 28.3°F-2.1°C 21.4°F-5.9°C 75% 2.1 mph W3.4 kmh W 7.0 mph11.3 kmh 30.30 in1026.1 mb 0.00 in0.0 mm 0.00 in0.0 mm 0.00 in0.0 mm
05:50 AM 28.5°F-1.9°C 21.3°F-5.9°C 74% 2.6 mph W4.2 kmh W 7.0 mph11.3 kmh 30.29 in1025.7 mb 0.00 in0.0 mm 0.00 in0.0 mm 0.00 in0.0 mm
05:40 AM 28.7°F-1.8°C 21.5°F-5.8°C 74% 3.0 mph W4.8 kmh W 6.0 mph9.7 kmh 30.29 in1025.7 mb 0.00 in0.0 mm 0.00 in0.0 mm 0.00 in0.0 mm
05:30 AM 28.9°F-1.7°C 21.7°F-5.7°C 74% 3.1 mph W5.0 kmh W 10.0 mph16.1 kmh 30.29 in1025.7 mb 0.00 in0.0 mm 0.00 in0.0 mm 0.00 in0.0 mm
05:20 AM 29.0°F-1.7°C 21.4°F-5.9°C 73% 2.5 mph W4.0 kmh W 10.0 mph16.1 kmh 30.29 in1025.7 mb 0.00 in0.0 mm 0.00 in0.0 mm 0.00 in0.0 mm
05:10 AM 29.2°F-1.6°C 21.9°F-5.6°C 74% 3.7 mph W6.0 kmh W 7.0 mph11.3 kmh 30.28 in1025.4 mb 0.00 in0.0 mm 0.00 in0.0 mm 0.00 in0.0 mm
05:00 AM 29.4°F-1.4°C 21.8°F-5.7°C 73% 3.9 mph W6.3 kmh W 11.0 mph17.7 kmh 30.28 in1025.4 mb 0.00 in0.0 mm 0.00 in0.0 mm 0.00 in0.0 mm
04:50 AM 29.3°F-1.5°C 22.4°F-5.3°C 75% 3.0 mph W4.8 kmh W 9.0 mph14.5 kmh 30.28 in1025.4 mb 0.00 in0.0 mm 0.00 in0.0 mm 0.00 in0.0 mm
04:40 AM 29.2°F-1.6°C 22.6°F-5.2°C 76% 1.7 mph W2.7 kmh W 6.0 mph9.7 kmh 30.27 in1025.1 mb 0.00 in0.0 mm 0.00 in0.0 mm 0.00 in0.0 mm
04:30 AM 28.8°F-1.8°C 23.1°F-4.9°C 79% 1.0 mph WSW1.6 kmh WSW 3.0 mph4.8 kmh 30.27 in1025.1 mb 0.00 in0.0 mm 0.00 in0.0 mm 0.00 in0.0 mm
04:20 AM 29.0°F-1.7°C 23.0°F-5.0°C 78% 1.0 mph W1.6 kmh W 5.0 mph8.0 kmh 30.27 in1025.1 mb 0.00 in0.0 mm 0.00 in0.0 mm 0.00 in0.0 mm
04:10 AM 29.4°F-1.4°C 23.1°F-4.9°C 77% 1.2 mph W1.9 kmh W 5.0 mph8.0 kmh 30.27 in1025.1 mb 0.00 in0.0 mm 0.00 in0.0 mm 0.00 in0.0 mm
04:00 AM 29.7°F-1.3°C 23.1°F-4.9°C 76% 2.0 mph W3.2 kmh W 5.0 mph8.0 kmh 30.27 in1025.1 mb 0.00 in0.0 mm 0.00 in0.0 mm 0.00 in0.0 mm
03:50 AM 29.9°F-1.2°C 23.3°F-4.8°C 76% 2.0 mph W3.2 kmh W 5.0 mph8.0 kmh 30.27 in1025.1 mb 0.00 in0.0 mm 0.00 in0.0 mm 0.00 in0.0 mm
03:40 AM 30.2°F-1.0°C 23.2°F-4.9°C 75% 2.5 mph W4.0 kmh W 6.0 mph9.7 kmh 30.26 in1024.7 mb 0.00 in0.0 mm 0.00 in0.0 mm 0.00 in0.0 mm
03:30 AM 30.5°F-0.8°C 23.5°F-4.7°C 75% 3.0 mph W4.8 kmh W 8.0 mph12.9 kmh 30.27 in1025.1 mb 0.00 in0.0 mm 0.00 in0.0 mm 0.00 in0.0 mm
03:20 AM 30.4°F-0.9°C 23.4°F-4.8°C 75% 2.2 mph W3.5 kmh W 8.0 mph12.9 kmh 30.26 in1024.7 mb 0.00 in0.0 mm 0.00 in0.0 mm 0.00 in0.0 mm
03:10 AM 30.5°F-0.8°C 24.5°F-4.2°C 78% 2.0 mph WSW3.2 kmh WSW 6.0 mph9.7 kmh 30.26 in1024.7 mb 0.00 in0.0 mm 0.00 in0.0 mm 0.00 in0.0 mm
03:00 AM 30.7°F-0.7°C 24.3°F-4.3°C 77% 2.0 mph W3.2 kmh W 5.0 mph8.0 kmh 30.25 in1024.4 mb 0.00 in0.0 mm 0.00 in0.0 mm 0.00 in0.0 mm
02:50 AM 30.9°F-0.6°C 24.2°F-4.3°C 76% 2.7 mph W4.3 kmh W 6.0 mph9.7 kmh 30.26 in1024.7 mb 0.00 in0.0 mm 0.00 in0.0 mm 0.00 in0.0 mm
02:40 AM 31.1°F-0.5°C 24.1°F-4.4°C 75% 2.7 mph W4.3 kmh W 8.0 mph12.9 kmh 30.25 in1024.4 mb 0.00 in0.0 mm 0.00 in0.0 mm 0.00 in0.0 mm
02:30 AM 31.0°F-0.6°C 24.6°F-4.1°C 77% 2.0 mph W3.2 kmh W 6.0 mph9.7 kmh 30.25 in1024.4 mb 0.00 in0.0 mm 0.00 in0.0 mm 0.00 in0.0 mm
02:20 AM 31.1°F-0.5°C 24.7°F-4.1°C 77% 1.8 mph W2.9 kmh W 7.0 mph11.3 kmh 30.26 in1024.7 mb 0.00 in0.0 mm 0.00 in0.0 mm 0.00 in0.0 mm
02:10 AM 31.0°F-0.6°C 24.9°F-3.9°C 78% 1.3 mph W2.1 kmh W 4.0 mph6.4 kmh 30.25 in1024.4 mb 0.00 in0.0 mm 0.00 in0.0 mm 0.00 in0.0 mm
02:00 AM 31.1°F-0.5°C 25.0°F-3.9°C 78% 1.8 mph W2.9 kmh W 4.0 mph6.4 kmh 30.25 in1024.4 mb 0.00 in0.0 mm 0.00 in0.0 mm 0.00 in0.0 mm
01:50 AM 31.3°F-0.4°C 25.5°F-3.6°C 79% 1.2 mph WSW1.9 kmh WSW 4.0 mph6.4 kmh 30.24 in1024.0 mb 0.00 in0.0 mm 0.00 in0.0 mm 0.00 in0.0 mm
01:40 AM 31.1°F-0.5°C 25.7°F-3.5°C 80% 1.0 mph WSW1.6 kmh WSW 3.0 mph4.8 kmh 30.25 in1024.4 mb 0.00 in0.0 mm 0.00 in0.0 mm 0.00 in0.0 mm
01:30 AM 31.1°F-0.5°C 25.7°F-3.5°C 80% 0.8 mph WSW1.3 kmh WSW 3.0 mph4.8 kmh 30.24 in1024.0 mb 0.00 in0.0 mm 0.00 in0.0 mm 0.00 in0.0 mm
01:20 AM 31.6°F-0.2°C 25.8°F-3.4°C 79% 1.0 mph W1.6 kmh W 3.0 mph4.8 kmh 30.24 in1024.0 mb 0.00 in0.0 mm 0.00 in0.0 mm 0.00 in0.0 mm
01:10 AM 32.0°F0.0°C 25.6°F-3.6°C 77% 1.0 mph W1.6 kmh W 3.0 mph4.8 kmh 30.23 in1023.7 mb 0.00 in0.0 mm 0.00 in0.0 mm 0.00 in0.0 mm
01:00 AM 32.5°F0.3°C 25.8°F-3.4°C 76% 1.9 mph W3.1 kmh W 5.0 mph8.0 kmh 30.23 in1023.7 mb 0.00 in0.0 mm 0.00 in0.0 mm 0.00 in0.0 mm
12:50 AM 32.8°F0.4°C 25.7°F-3.5°C 75% 2.7 mph W4.3 kmh W 8.0 mph12.9 kmh 30.23 in1023.7 mb 0.00 in0.0 mm 0.00 in0.0 mm 0.00 in0.0 mm
12:40 AM 32.9°F0.5°C 25.8°F-3.4°C 75% 2.3 mph W3.7 kmh W 7.0 mph11.3 kmh 30.23 in1023.7 mb 0.00 in0.0 mm 0.00 in0.0 mm 0.00 in0.0 mm
12:30 AM 32.6°F0.3°C 26.2°F-3.2°C 77% 0.7 mph W1.1 kmh W 8.0 mph12.9 kmh 30.23 in1023.7 mb 0.00 in0.0 mm 0.00 in0.0 mm 0.00 in0.0 mm
12:20 AM 32.4°F0.2°C 27.2°F-2.7°C 81% Calm Calm 1.0 mph1.6 kmh 30.23 in1023.7 mb 0.00 in0.0 mm 0.00 in0.0 mm 0.00 in0.0 mm
12:10 AM 33.0°F0.6°C 27.5°F-2.5°C 80% 0.7 mph W1.1 kmh W 2.0 mph3.2 kmh 30.23 in1023.7 mb 0.00 in0.0 mm 0.00 in0.0 mm 0.00 in0.0 mm
12:00 AM 33.5°F0.8°C 27.7°F-2.4°C 79% 1.0 mph W1.6 kmh W 3.0 mph4.8 kmh 30.23 in1023.7 mb 0.00 in0.0 mm 0.00 in0.0 mm 0.00 in0.0 mm